createdAt,value
2018-08-06T00:04:16.525Z,100773.22
2018-08-06T00:09:20.145Z,100774.64
2018-08-06T00:14:23.952Z,100771.03
2018-08-06T00:19:27.609Z,100774.00
2018-08-06T00:24:31.226Z,100779.86
2018-08-06T00:29:34.884Z,100778.92
2018-08-06T00:34:38.966Z,100774.95
2018-08-06T00:39:42.719Z,100769.84
2018-08-06T00:44:46.346Z,100764.69
2018-08-06T00:49:50.002Z,100764.13
2018-08-06T00:54:53.755Z,100759.13
2018-08-06T00:59:57.430Z,100755.22
2018-08-06T01:05:02.276Z,100751.72
2018-08-06T01:10:07.427Z,100751.28
2018-08-06T01:15:14.336Z,100747.37
2018-08-06T01:20:18.026Z,100742.86
2018-08-06T01:25:21.726Z,100745.36
2018-08-06T01:30:25.431Z,100743.30
2018-08-06T01:35:29.067Z,100737.30
2018-08-06T01:40:32.817Z,100737.09
2018-08-06T01:45:36.522Z,100742.20
2018-08-06T01:50:40.177Z,100737.44
2018-08-06T01:55:43.825Z,100726.06
2018-08-06T02:00:47.518Z,100732.61
2018-08-06T02:05:51.154Z,100733.58
2018-08-06T02:10:54.920Z,100727.40
2018-08-06T02:15:58.663Z,100729.89
2018-08-06T02:21:02.363Z,100726.09
2018-08-06T02:26:06.378Z,100731.44
2018-08-06T02:31:10.103Z,100733.43
2018-08-06T02:36:13.746Z,100723.62
2018-08-06T02:41:17.480Z,100727.92
2018-08-06T02:46:21.158Z,100726.01
2018-08-06T02:51:24.938Z,100726.23
2018-08-06T02:56:28.533Z,100722.25
2018-08-06T03:01:32.133Z,100718.98
2018-08-06T03:06:35.820Z,100715.28
2018-08-06T03:11:39.927Z,100718.23
2018-08-06T03:16:43.631Z,100706.58
2018-08-06T03:21:47.249Z,100714.33
2018-08-06T03:26:50.982Z,100717.84
2018-08-06T03:31:54.602Z,100718.73
2018-08-06T03:36:58.281Z,100727.56
2018-08-06T03:42:01.973Z,100732.59
2018-08-06T03:47:05.643Z,100728.17
2018-08-06T03:52:09.353Z,100730.48
2018-08-06T03:57:12.988Z,100725.66
2018-08-06T04:02:16.630Z,100734.58
2018-08-06T04:07:20.505Z,100736.60
2018-08-06T04:12:24.128Z,100748.14
2018-08-06T04:17:27.842Z,100751.52
2018-08-06T04:22:31.566Z,100751.00
2018-08-06T04:27:35.311Z,100764.47
2018-08-06T04:32:38.994Z,100769.08
2018-08-06T04:37:43.585Z,100767.63
2018-08-06T04:42:47.218Z,100774.20
2018-08-06T04:47:50.873Z,100772.03
2018-08-06T04:52:54.661Z,100777.50
2018-08-06T04:57:58.329Z,100784.09
2018-08-06T05:03:01.970Z,100784.95
2018-08-06T05:08:05.594Z,100790.20
2018-08-06T05:13:09.219Z,100785.19
2018-08-06T05:18:12.845Z,100791.01
2018-08-06T05:23:16.526Z,100789.94
2018-08-06T05:28:20.151Z,100793.58
2018-08-06T05:33:23.818Z,100801.42
2018-08-06T05:38:27.644Z,100804.52
2018-08-06T05:43:31.411Z,100802.97
2018-08-06T05:48:35.069Z,100806.50
2018-08-06T05:53:38.826Z,100814.30
2018-08-06T05:58:43.173Z,100819.06
2018-08-06T06:03:46.902Z,100814.18
2018-08-06T06:08:50.553Z,100817.53
2018-08-06T06:13:54.266Z,100824.13
2018-08-06T06:18:58.005Z,100827.02
2018-08-06T06:24:01.685Z,100819.55
2018-08-06T06:29:05.807Z,100812.19
2018-08-06T06:34:09.754Z,100819.53
2018-08-06T06:39:13.524Z,100817.66
2018-08-06T06:44:19.095Z,100808.83
2018-08-06T06:49:22.753Z,100811.89
2018-08-06T06:54:26.511Z,100801.25
2018-08-06T06:59:30.167Z,100800.39
2018-08-06T07:04:33.890Z,100803.63
2018-08-06T07:09:37.922Z,100806.63
2018-08-06T07:14:41.558Z,100783.38
2018-08-06T07:19:45.252Z,100795.45
2018-08-06T07:24:48.956Z,100792.25
2018-08-06T07:29:52.607Z,100795.08
2018-08-06T07:34:56.311Z,100791.19
2018-08-06T07:40:00.048Z,100784.39
2018-08-06T07:45:06.814Z,100783.27
2018-08-06T07:50:14.126Z,100784.22
2018-08-06T07:55:17.908Z,100781.18
2018-08-06T08:00:21.538Z,100777.64
2018-08-06T08:05:25.184Z,100769.32
2018-08-06T08:10:28.843Z,100763.16
2018-08-06T08:15:32.596Z,100761.31
2018-08-06T08:20:36.303Z,100755.98
2018-08-06T08:25:39.941Z,100755.60
2018-08-06T08:30:43.780Z,100752.02
2018-08-06T08:35:47.397Z,100746.95
2018-08-06T08:40:51.043Z,100744.65
2018-08-06T08:45:55.374Z,100742.27
2018-08-06T08:50:59.069Z,100745.36
2018-08-06T08:56:02.762Z,100741.75
2018-08-06T09:01:06.402Z,100725.39
2018-08-06T09:06:10.111Z,100721.97
2018-08-06T09:11:13.775Z,100717.47
2018-08-06T09:16:17.386Z,100713.55
2018-08-06T09:21:21.065Z,100706.31
2018-08-06T09:26:24.720Z,100701.70
2018-08-06T09:31:28.299Z,100697.16
2018-08-06T09:36:32.045Z,100695.82
2018-08-06T09:41:36.249Z,100694.75
2018-08-06T09:46:39.877Z,100690.50
2018-08-06T09:51:43.531Z,100674.67
2018-08-06T09:56:47.182Z,100681.20
2018-08-06T10:01:56.394Z,100674.68
2018-08-06T10:07:00.130Z,100662.45
2018-08-06T10:12:04.233Z,100666.28
2018-08-06T10:17:07.907Z,100655.97
2018-08-06T10:22:11.650Z,100644.55
2018-08-06T10:27:15.443Z,100632.95
2018-08-06T10:32:19.397Z,100630.30
2018-08-06T10:37:22.989Z,100627.59
2018-08-06T10:42:26.671Z,100622.84
2018-08-06T10:47:30.388Z,100612.59
2018-08-06T10:52:34.198Z,100606.13
2018-08-06T10:57:38.394Z,100594.03
2018-08-06T11:02:42.058Z,100589.92
2018-08-06T11:07:45.768Z,100584.57
2018-08-06T11:12:49.548Z,100584.52
2018-08-06T11:17:53.163Z,100579.11
2018-08-06T11:22:56.859Z,100569.85
2018-08-06T11:28:00.562Z,100565.44
2018-08-06T11:33:04.229Z,100551.92
2018-08-06T11:38:07.903Z,100546.16
2018-08-06T11:43:11.561Z,100541.95
2018-08-06T11:48:15.314Z,100530.23
2018-08-06T11:53:19.088Z,100534.81
2018-08-06T11:58:22.865Z,100530.75
2018-08-06T12:03:26.475Z,100529.50
2018-08-06T12:08:30.313Z,100517.94
2018-08-06T12:13:33.964Z,100519.56
2018-08-06T12:18:37.605Z,100515.34
2018-08-06T12:23:41.323Z,100499.47
2018-08-06T12:28:45.138Z,100506.89
2018-08-06T12:33:48.895Z,100503.69
2018-08-06T12:39:03.368Z,100493.22
2018-08-06T12:44:08.240Z,100485.80
2018-08-06T12:49:12.200Z,100491.09
2018-08-06T12:54:15.885Z,100481.63
2018-08-06T12:59:19.562Z,100477.95
2018-08-06T13:04:23.275Z,100469.33
2018-08-06T13:09:26.918Z,100466.98
2018-08-06T13:14:30.649Z,100457.70
2018-08-06T13:19:34.362Z,100457.84
2018-08-06T13:24:38.030Z,100444.08
2018-08-06T13:29:41.710Z,100443.73
2018-08-06T13:34:45.427Z,100433.22
2018-08-06T13:39:49.241Z,100429.17
2018-08-06T13:44:52.926Z,100415.30
2018-08-06T13:49:56.644Z,100416.99
2018-08-06T13:55:00.429Z,100421.09
2018-08-06T14:00:08.140Z,100406.71
2018-08-06T14:12:49.298Z,100385.03
2018-08-06T14:17:53.696Z,100386.77
2018-08-06T14:22:57.451Z,100376.29
2018-08-06T14:28:01.290Z,100374.81
2018-08-06T14:33:04.988Z,100362.32
2018-08-06T14:38:08.668Z,100363.52
2018-08-06T14:43:12.289Z,100352.03
2018-08-06T14:48:15.969Z,100347.78
2018-08-06T14:53:19.617Z,100340.09
2018-08-06T14:58:23.320Z,100325.74
2018-08-06T15:03:27.143Z,100333.26
2018-08-06T15:08:30.848Z,100324.02
2018-08-06T15:13:34.680Z,100332.00
2018-08-06T15:18:38.311Z,100329.69
2018-08-06T15:23:41.947Z,100324.84
2018-08-06T15:28:45.694Z,100320.83
2018-08-06T15:33:49.490Z,100311.87
2018-08-06T15:38:53.230Z,100300.20
2018-08-06T15:43:57.115Z,100304.62
2018-08-06T15:49:01.001Z,100298.80
2018-08-06T15:54:05.290Z,100297.56
2018-08-06T15:59:09.009Z,100286.06
2018-08-06T16:04:12.824Z,100280.98
2018-08-06T16:09:16.486Z,100280.95
2018-08-06T16:14:20.310Z,100279.25
2018-08-06T16:19:24.014Z,100269.59
2018-08-06T16:24:27.697Z,100263.67
2018-08-06T16:29:31.410Z,100253.27
2018-08-06T16:34:35.003Z,100252.19
2018-08-06T16:39:38.833Z,100251.72
2018-08-06T16:44:42.621Z,100245.62
2018-08-06T16:49:46.416Z,100237.45
2018-08-06T16:54:50.153Z,100240.50
2018-08-06T16:59:53.834Z,100234.58
2018-08-06T17:04:57.617Z,100222.21
2018-08-06T17:10:08.256Z,100224.62
2018-08-06T17:15:13.460Z,100225.30
2018-08-06T17:20:19.304Z,100220.21
2018-08-06T17:25:22.963Z,100230.03
2018-08-06T17:30:26.702Z,100218.52
2018-08-06T17:35:30.470Z,100229.19
2018-08-06T17:40:34.487Z,100224.45
2018-08-06T17:45:41.022Z,100220.01
2018-08-06T17:50:45.967Z,100211.94
2018-08-06T17:55:50.477Z,100210.23
2018-08-06T18:00:54.905Z,100213.77
2018-08-06T18:05:58.556Z,100213.97
2018-08-06T18:11:02.380Z,100216.17
2018-08-06T18:16:06.246Z,100207.88
2018-08-06T18:21:11.609Z,100200.92
2018-08-06T18:26:15.800Z,100194.66
2018-08-06T18:31:19.492Z,100209.39
2018-08-06T18:36:23.325Z,100216.84
2018-08-06T18:41:27.544Z,100210.95
2018-08-06T18:46:31.702Z,100211.42
2018-08-06T18:51:35.506Z,100210.07
2018-08-06T18:56:40.238Z,100214.81
2018-08-06T19:01:43.915Z,100218.03
2018-08-06T19:06:47.554Z,100218.72
2018-08-06T19:11:51.158Z,100217.98
2018-08-06T19:16:54.862Z,100217.87
2018-08-06T19:21:59.245Z,100220.58
2018-08-06T19:27:02.911Z,100220.69
2018-08-06T19:32:06.813Z,100229.33
2018-08-06T19:37:16.098Z,100227.48
2018-08-06T19:42:19.759Z,100228.10
2018-08-06T19:47:23.442Z,100228.65
2018-08-06T19:52:27.991Z,100229.33
2018-08-06T19:57:31.783Z,100226.11
2018-08-06T20:02:35.462Z,100226.45
2018-08-06T20:07:39.174Z,100223.02
2018-08-06T20:23:10.127Z,100217.94
2018-08-06T20:28:14.181Z,100217.03
2018-08-06T20:33:18.026Z,100221.50
2018-08-06T20:38:24.318Z,100218.11
2018-08-06T20:43:28.187Z,100214.48
2018-08-06T20:48:43.964Z,100217.45
2018-08-06T22:51:45.700Z,100223.59
2018-08-06T22:56:49.347Z,100188.38
2018-08-06T23:01:52.962Z,100183.80
2018-08-06T23:06:56.697Z,100182.95
2018-08-06T23:12:00.370Z,100181.59
2018-08-06T23:17:04.050Z,100180.58
2018-08-06T23:22:07.685Z,100175.67
2018-08-06T23:27:11.349Z,100168.77
2018-08-06T23:32:15.502Z,100161.61
2018-08-06T23:37:19.161Z,100158.27
2018-08-06T23:42:22.845Z,100161.14
2018-08-06T23:47:26.490Z,100160.09
2018-08-06T23:52:30.116Z,100153.48
2018-08-06T23:57:33.799Z,100152.13
